Dati Storici

Data ora Umidita' aria (%) Temperatura aria (°C) Rad globale (W/m²) Gonioanemometro (°) Tacoanemometro (m/s) Pioggia (mm)
05-11-2012 02:50 96.1 % 15.888 2.305 132.279 2.1 0
05-11-2012 02:40 95 % 15.436 2.202 165.018 0.996 0
05-11-2012 02:30 94.3 % 15.507 2.485 205.831 0.564 0
05-11-2012 02:20 94.1 % 16.069 2.459 229.65 0.943 0
05-11-2012 02:10 95.2 % 16.542 2.472 193.428 2.079 0
05-11-2012 02:00 95.9 % 16.524 2.305 121.101 2.004 0
05-11-2012 01:50 96.9 % 16.397 2.819 180.283 2.98 0
05-11-2012 01:40 98 % 16.185 3.229 218.454 1.741 0
05-11-2012 01:30 98 % 16.006 3.152 193.597 2.261 0
05-11-2012 01:20 98 % 15.889 3.049 135.248 1.273 0
05-11-2012 01:10 98 % 15.684 2.421 154.47 2.737 0
05-11-2012 01:00 98 % 14.81 2.562 190.772 1.655 0
05-11-2012 00:50 98 % 13.696 3.306 149.021 0.469 0
05-11-2012 00:40 98 % 13.541 3.473 214.743 -0.018 0
05-11-2012 00:30 98 % 13.492 3.447 348.221 0.749 0
05-11-2012 00:20 98 % 13.393 3.383 353.082 0.887 0
05-11-2012 00:10 98 % 13.364 3.242 46.386 0.356 0
05-11-2012 00:00 98 % 13.237 3.306 47.018 0.591 0
04-11-2012 23:50 98 % 13.183 3.409 42.958 0.655 0
04-11-2012 23:40 97.8 % 13.103 3.101 136.062 0.206 0

I dati sono presentati in modo automatico a scopo informativo. In seguito a verifica i dati possono subire modifiche o essere invalidati e non riportati negli archivi definitivi.